createdAt,value
2018-02-20T00:00:33.702Z,92.61
2018-02-20T00:01:33.719Z,92.52
2018-02-20T00:02:33.702Z,92.05
2018-02-20T00:03:33.690Z,92.24
2018-02-20T00:04:33.685Z,92.05
2018-02-20T00:05:33.676Z,92.33
2018-02-20T00:06:33.679Z,92.05
2018-02-20T00:07:34.631Z,92.61
2018-02-20T00:08:33.680Z,91.48
2018-02-20T00:09:33.678Z,91.86
2018-02-20T00:10:33.666Z,91.29
2018-02-20T00:11:33.666Z,92.05
2018-02-20T00:12:33.662Z,92.61
2018-02-20T00:13:33.663Z,91.58
2018-02-20T00:14:33.646Z,91.39
2018-02-20T00:15:33.653Z,92.14
2018-02-20T00:16:33.651Z,91.67
2018-02-20T00:17:33.654Z,91.39
2018-02-20T00:18:33.645Z,92.14
2018-02-20T00:19:33.643Z,92.05
2018-02-20T00:20:33.642Z,92.43
2018-02-20T00:21:33.634Z,92.33
2018-02-20T00:22:33.636Z,92.33
2018-02-20T00:23:33.640Z,91.29
2018-02-20T00:24:33.624Z,91.48
2018-02-20T00:25:34.613Z,91.77
2018-02-20T00:26:33.625Z,91.58
2018-02-20T00:27:33.630Z,91.86
2018-02-20T00:28:33.645Z,91.67
2018-02-20T00:29:33.626Z,91.58
2018-02-20T00:30:33.621Z,91.39
2018-02-20T00:31:33.608Z,91.67
2018-02-20T00:32:33.609Z,91.67
2018-02-20T00:33:33.604Z,91.96
2018-02-20T00:34:33.605Z,91.58
2018-02-20T00:35:33.601Z,91.67
2018-02-20T00:36:33.597Z,92.80
2018-02-20T00:37:33.598Z,92.14
2018-02-20T00:38:33.582Z,92.33
2018-02-20T00:39:33.585Z,92.52
2018-02-20T00:40:33.589Z,92.43
2018-02-20T00:41:33.618Z,92.43
2018-02-20T00:42:33.582Z,92.33
2018-02-20T00:43:33.578Z,92.33
2018-02-20T00:44:33.586Z,92.33
2018-02-20T00:45:33.570Z,92.52
2018-02-20T00:46:33.574Z,92.71
2018-02-20T00:47:33.566Z,91.96
2018-02-20T00:48:33.563Z,92.05
2018-02-20T00:49:33.575Z,92.05
2018-02-20T00:50:33.554Z,92.90
2018-02-20T00:51:33.542Z,92.80
2018-02-20T00:52:33.556Z,92.71
2018-02-20T00:53:33.547Z,92.61
2018-02-20T00:54:33.540Z,92.71
2018-02-20T00:55:33.543Z,92.14
2018-02-20T00:56:33.540Z,92.52
2018-02-20T00:57:33.537Z,92.80
2018-02-20T00:58:33.534Z,92.52
2018-02-20T00:59:33.524Z,92.80
2018-02-20T01:00:33.520Z,92.33
2018-02-20T01:01:33.523Z,92.71
2018-02-20T01:02:33.513Z,92.61
2018-02-20T01:03:33.508Z,92.61
2018-02-20T01:04:33.519Z,92.90
2018-02-20T01:05:33.514Z,94.13
2018-02-20T01:06:33.512Z,93.85
2018-02-20T01:07:33.501Z,93.75
2018-02-20T01:08:33.498Z,93.94
2018-02-20T01:09:33.509Z,92.80
2018-02-20T01:10:33.499Z,92.71
2018-02-20T01:11:33.490Z,92.71
2018-02-20T01:12:33.595Z,92.52
2018-02-20T01:13:33.503Z,92.61
2018-02-20T01:14:33.484Z,93.09
2018-02-20T01:15:33.485Z,92.43
2018-02-20T01:16:33.479Z,92.61
2018-02-20T01:17:33.474Z,92.99
2018-02-20T01:18:33.476Z,92.61
2018-02-20T01:19:33.464Z,92.61
2018-02-20T01:20:33.467Z,92.99
2018-02-20T01:21:33.466Z,92.61
2018-02-20T01:22:33.461Z,92.24
2018-02-20T01:23:33.473Z,92.90
2018-02-20T01:24:33.473Z,92.61
2018-02-20T01:25:34.118Z,92.33
2018-02-20T01:26:33.456Z,92.61
2018-02-20T01:27:33.447Z,92.71
2018-02-20T01:28:33.443Z,92.52
2018-02-20T01:29:33.437Z,92.33
2018-02-20T01:30:33.439Z,92.61
2018-02-20T01:31:33.428Z,92.52
2018-02-20T01:32:33.423Z,92.24
2018-02-20T01:33:33.428Z,92.52
2018-02-20T01:34:33.420Z,92.61
2018-02-20T01:35:33.427Z,92.43
2018-02-20T01:36:33.435Z,93.18
2018-02-20T01:37:33.416Z,92.71
2018-02-20T01:38:33.414Z,92.71
2018-02-20T01:39:34.120Z,92.80
2018-02-20T01:40:33.414Z,92.61
2018-02-20T01:41:33.484Z,92.61
2018-02-20T01:42:33.399Z,92.71
2018-02-20T01:43:33.391Z,92.90
2018-02-20T01:44:33.399Z,92.52
2018-02-20T01:45:33.393Z,92.52
2018-02-20T01:46:33.395Z,92.61
2018-02-20T01:47:33.390Z,92.90
2018-02-20T01:48:33.378Z,92.52
2018-02-20T01:49:33.377Z,92.33
2018-02-20T01:50:33.376Z,92.61
2018-02-20T01:51:33.374Z,93.47
2018-02-20T01:52:33.360Z,92.43
2018-02-20T01:53:33.363Z,92.71
2018-02-20T01:54:33.410Z,92.61
2018-02-20T01:55:33.363Z,92.61
2018-02-20T01:56:33.378Z,92.80
2018-02-20T01:57:33.353Z,92.61
2018-02-20T01:58:33.348Z,92.80
2018-02-20T01:59:33.348Z,93.09
2018-02-20T02:00:33.348Z,92.80
2018-02-20T02:01:33.330Z,92.71
2018-02-20T02:02:33.341Z,92.71
2018-02-20T02:03:33.335Z,93.37
2018-02-20T02:04:33.331Z,93.28
2018-02-20T02:05:33.330Z,92.99
2018-02-20T02:06:33.319Z,93.85
2018-02-20T02:07:33.319Z,93.94
2018-02-20T02:08:33.322Z,93.75
2018-02-20T02:09:33.322Z,93.94
2018-02-20T02:10:33.317Z,94.23
2018-02-20T02:11:33.310Z,94.42
2018-02-20T02:12:33.332Z,93.85
2018-02-20T02:13:33.298Z,93.94
2018-02-20T02:14:33.298Z,93.89
2018-02-20T02:15:33.293Z,94.18
2018-02-20T02:16:33.310Z,94.65
2018-02-20T02:17:33.302Z,94.37
2018-02-20T02:18:33.288Z,95.12
2018-02-20T02:19:33.290Z,95.78
2018-02-20T02:20:33.283Z,95.59
2018-02-20T02:21:33.283Z,96.16
2018-02-20T02:22:33.268Z,96.16
2018-02-20T02:23:33.270Z,95.78
2018-02-20T02:24:33.269Z,96.54
2018-02-20T02:25:33.258Z,96.35
2018-02-20T02:26:33.281Z,96.73
2018-02-20T02:27:33.261Z,96.54
2018-02-20T02:28:33.280Z,97.01
2018-02-20T02:29:33.250Z,97.01
2018-02-20T02:30:33.253Z,97.01
2018-02-20T02:31:33.249Z,96.92
2018-02-20T02:32:33.250Z,97.01
2018-02-20T02:33:33.239Z,97.11
2018-02-20T02:34:33.235Z,96.45
2018-02-20T02:35:33.231Z,96.83
2018-02-20T02:36:33.225Z,96.45
2018-02-20T02:37:33.229Z,96.83
2018-02-20T02:38:33.223Z,96.45
2018-02-20T02:39:33.218Z,96.73
2018-02-20T02:40:33.226Z,96.73
2018-02-20T02:41:33.228Z,96.64
2018-02-20T02:42:33.208Z,96.83
2018-02-20T02:43:33.211Z,96.45
2018-02-20T02:44:33.208Z,96.73
2018-02-20T02:45:33.246Z,96.73
2018-02-20T02:46:33.192Z,96.64
2018-02-20T02:47:33.205Z,95.78
2018-02-20T02:48:33.193Z,95.69
2018-02-20T02:49:33.186Z,96.07
2018-02-20T02:50:33.185Z,96.16
2018-02-20T02:51:33.188Z,96.45
2018-02-20T02:52:33.182Z,96.64
2018-02-20T02:53:33.165Z,96.45
2018-02-20T02:54:33.166Z,96.73
2018-02-20T02:55:33.160Z,96.45
2018-02-20T02:56:33.168Z,96.45
2018-02-20T02:57:33.171Z,96.83
2018-02-20T02:58:33.157Z,96.64
2018-02-20T02:59:33.162Z,96.26
2018-02-20T03:00:33.158Z,95.97
2018-02-20T03:01:33.160Z,95.69
2018-02-20T03:02:33.624Z,95.69
2018-02-20T03:03:33.145Z,95.59
2018-02-20T03:04:33.144Z,95.69
2018-02-20T03:05:33.141Z,95.59
2018-02-20T03:06:33.138Z,95.88
2018-02-20T03:07:33.122Z,95.88
2018-02-20T03:08:33.128Z,95.59
2018-02-20T03:09:33.127Z,95.50
2018-02-20T03:10:33.117Z,95.59
2018-02-20T03:11:33.115Z,95.31
2018-02-20T03:12:33.126Z,95.31
2018-02-20T03:13:33.124Z,95.40
2018-02-20T03:14:33.100Z,95.03
2018-02-20T03:15:33.180Z,95.21
2018-02-20T03:16:33.109Z,95.03
2018-02-20T03:17:33.097Z,94.46
2018-02-20T03:18:33.088Z,94.46
2018-02-20T03:19:33.092Z,95.12
2018-02-20T03:20:33.089Z,94.37
2018-02-20T03:21:33.081Z,94.46
2018-02-20T03:22:33.078Z,94.74
2018-02-20T03:23:33.070Z,94.46
2018-02-20T03:24:33.076Z,94.46
2018-02-20T03:25:33.056Z,94.56
2018-02-20T03:26:33.063Z,95.12
2018-02-20T03:27:33.066Z,94.56
2018-02-20T03:28:33.070Z,95.03
2018-02-20T03:29:33.051Z,95.03
2018-02-20T03:30:33.054Z,95.12
2018-02-20T03:31:33.049Z,95.21
2018-02-20T03:32:33.046Z,95.59
2018-02-20T03:33:33.062Z,95.50
2018-02-20T03:34:33.031Z,95.40
2018-02-20T03:35:33.039Z,95.88
2018-02-20T03:36:33.034Z,95.59
2018-02-20T03:37:33.023Z,95.50
2018-02-20T03:38:33.023Z,95.69
2018-02-20T03:39:33.021Z,95.69
2018-02-20T03:40:33.014Z,95.50
2018-02-20T03:41:33.015Z,95.59
2018-02-20T03:42:33.009Z,95.50
2018-02-20T03:43:33.024Z,95.21
2018-02-20T03:44:33.008Z,95.03
2018-02-20T03:45:33.014Z,95.31
2018-02-20T03:46:33.632Z,94.84
2018-02-20T03:47:32.989Z,94.84
2018-02-20T03:48:32.989Z,95.12
2018-02-20T03:49:32.993Z,95.12
2018-02-20T03:50:32.993Z,95.31
2018-02-20T03:51:32.981Z,95.40
2018-02-20T03:52:32.976Z,95.69
2018-02-20T03:53:32.984Z,95.78
2018-02-20T03:54:32.961Z,96.16
2018-02-20T03:55:32.971Z,95.88
2018-02-20T03:56:32.957Z,95.78
2018-02-20T03:57:32.947Z,96.16
2018-02-20T03:58:32.948Z,96.35
2018-02-20T03:59:32.954Z,96.07
2018-02-20T04:00:32.945Z,96.54
2018-02-20T04:01:32.944Z,96.64
2018-02-20T04:02:32.941Z,96.26
2018-02-20T04:03:32.937Z,96.07
2018-02-20T04:04:32.935Z,95.97
2018-02-20T04:05:32.930Z,96.45
2018-02-20T04:06:32.928Z,96.45
2018-02-20T04:07:32.920Z,95.59
2018-02-20T04:08:32.916Z,95.88
2018-02-20T04:09:32.919Z,95.97
2018-02-20T04:10:32.907Z,95.78
2018-02-20T04:11:32.910Z,95.69
2018-02-20T04:12:32.937Z,95.69
2018-02-20T04:13:32.907Z,95.88
2018-02-20T04:14:32.905Z,95.97
2018-02-20T04:15:32.890Z,95.97
2018-02-20T04:16:32.900Z,95.78
2018-02-20T04:17:32.890Z,95.78
2018-02-20T04:18:32.896Z,95.69
2018-02-20T04:19:32.887Z,95.88
2018-02-20T04:20:32.880Z,95.78
2018-02-20T04:21:32.876Z,95.59
2018-02-20T04:22:32.870Z,95.88
2018-02-20T04:23:32.865Z,95.78
2018-02-20T04:24:32.865Z,95.40
2018-02-20T04:25:32.862Z,95.88
2018-02-20T04:26:32.854Z,95.78
2018-02-20T04:27:32.852Z,95.78
2018-02-20T04:28:32.842Z,95.59
2018-02-20T04:29:32.856Z,95.97
2018-02-20T04:30:32.839Z,95.59
2018-02-20T04:31:32.839Z,95.88
2018-02-20T04:32:32.826Z,95.59
2018-02-20T04:33:32.825Z,96.16
2018-02-20T04:34:32.829Z,96.07
2018-02-20T04:35:32.829Z,96.16
2018-02-20T04:36:32.830Z,95.59
2018-02-20T04:37:32.833Z,96.64
2018-02-20T04:38:32.817Z,96.26
2018-02-20T04:39:32.813Z,96.54
2018-02-20T04:40:32.818Z,95.78
2018-02-20T04:41:32.803Z,96.73
2018-02-20T04:42:32.800Z,96.45
2018-02-20T04:43:32.799Z,97.30
2018-02-20T04:44:32.794Z,97.30
2018-02-20T04:45:32.788Z,96.83
2018-02-20T04:46:32.790Z,97.30
2018-02-20T04:47:32.783Z,96.92
2018-02-20T04:48:32.780Z,97.11
2018-02-20T04:49:32.836Z,97.20
2018-02-20T04:50:32.766Z,96.54
2018-02-20T04:51:32.765Z,96.83
2018-02-20T04:52:32.760Z,97.20
2018-02-20T04:53:32.764Z,97.01
2018-02-20T04:54:32.762Z,97.53
2018-02-20T04:55:32.745Z,97.44
2018-02-20T04:56:32.752Z,97.44
2018-02-20T04:57:32.746Z,98.00
2018-02-20T04:58:32.740Z,98.38
2018-02-20T04:59:32.746Z,98.47
2018-02-20T05:00:32.754Z,98.28
2018-02-20T05:01:32.736Z,98.76
2018-02-20T05:02:32.846Z,98.57
2018-02-20T05:03:32.734Z,98.95
2018-02-20T05:04:32.731Z,98.38
2018-02-20T05:05:32.724Z,98.47
2018-02-20T05:06:32.721Z,98.28
2018-02-20T05:07:32.719Z,98.38
2018-02-20T05:08:32.716Z,99.04
2018-02-20T05:09:32.711Z,98.57
2018-02-20T05:10:32.715Z,98.85
2018-02-20T05:11:32.697Z,99.33
2018-02-20T05:12:32.699Z,99.04
2018-02-20T05:13:32.695Z,99.04
2018-02-20T05:14:32.685Z,98.95
2018-02-20T05:15:33.640Z,99.04
2018-02-20T05:16:32.682Z,99.71
2018-02-20T05:17:32.682Z,99.61
2018-02-20T05:18:32.666Z,99.23
2018-02-20T05:19:32.674Z,98.95
2018-02-20T05:20:32.657Z,98.57
2018-02-20T05:21:32.663Z,98.76
2018-02-20T05:22:32.657Z,98.28
2018-02-20T05:23:32.681Z,98.85
2018-02-20T05:24:32.652Z,98.85
2018-02-20T05:25:32.656Z,98.57
2018-02-20T05:26:32.644Z,99.04
2018-02-20T05:27:32.645Z,99.14
2018-02-20T05:28:32.630Z,99.23
2018-02-20T05:29:32.647Z,99.42
2018-02-20T05:30:32.679Z,99.14
2018-02-20T05:31:32.624Z,98.76
2018-02-20T05:32:32.625Z,98.76
2018-02-20T05:33:32.628Z,98.66
2018-02-20T05:34:32.614Z,99.14
2018-02-20T05:35:32.616Z,99.14
2018-02-20T05:36:32.693Z,99.33
2018-02-20T05:37:32.603Z,98.85
2018-02-20T05:38:32.610Z,98.57
2018-02-20T05:39:32.612Z,99.14
2018-02-20T05:40:32.614Z,99.23
2018-02-20T05:41:32.603Z,98.57
2018-02-20T05:42:32.589Z,98.95
2018-02-20T05:43:32.585Z,99.14
2018-02-20T05:44:32.582Z,98.38
2018-02-20T05:45:32.570Z,98.57
2018-02-20T05:46:32.568Z,97.81
2018-02-20T05:47:32.579Z,98.47
2018-02-20T05:48:32.573Z,98.10
2018-02-20T05:49:33.144Z,98.24
2018-02-20T05:50:32.561Z,98.43
2018-02-20T05:51:32.556Z,97.86
2018-02-20T05:52:32.553Z,97.96
2018-02-20T05:53:32.554Z,97.39
2018-02-20T05:54:32.542Z,97.63
2018-02-20T05:55:32.550Z,97.77
2018-02-20T05:56:32.530Z,97.81
2018-02-20T05:57:32.534Z,98.19
2018-02-20T05:58:32.527Z,98.47
2018-02-20T05:59:32.532Z,98.47
2018-02-20T06:00:32.529Z,98.57
2018-02-20T06:01:32.510Z,98.66
2018-02-20T06:02:32.512Z,98.85
2018-02-20T06:03:32.523Z,98.66
2018-02-20T06:04:32.505Z,98.95
2018-02-20T06:05:32.583Z,98.76
2018-02-20T06:06:32.510Z,98.76
2018-02-20T06:07:32.506Z,98.57
2018-02-20T06:08:32.505Z,98.85
2018-02-20T06:09:32.542Z,99.14
2018-02-20T06:10:32.571Z,99.33
2018-02-20T06:11:32.490Z,99.23
2018-02-20T06:12:32.475Z,99.23
2018-02-20T06:13:32.477Z,99.33
2018-02-20T06:14:32.482Z,99.42
2018-02-20T06:15:32.468Z,99.14
2018-02-20T06:16:32.470Z,99.14
2018-02-20T06:17:32.454Z,99.23
2018-02-20T06:18:32.470Z,99.80
2018-02-20T06:19:32.457Z,99.33
2018-02-20T06:20:32.464Z,99.89
2018-02-20T06:21:32.463Z,99.61
2018-02-20T06:22:32.444Z,99.61
2018-02-20T06:23:32.434Z,99.61
2018-02-20T06:24:32.451Z,99.61
2018-02-20T06:25:32.429Z,99.99
2018-02-20T06:26:32.422Z,99.71
2018-02-20T06:27:32.435Z,99.61
2018-02-20T06:28:32.421Z,99.33
2018-02-20T06:29:32.423Z,99.42
2018-02-20T06:30:32.405Z,99.89
2018-02-20T06:31:32.410Z,99.89
2018-02-20T06:32:32.416Z,99.99
2018-02-20T06:33:32.408Z,99.99
2018-02-20T06:34:32.388Z,99.99
2018-02-20T06:35:32.389Z,99.52
2018-02-20T06:36:32.503Z,99.89
2018-02-20T06:37:32.395Z,99.71
2018-02-20T06:38:32.392Z,99.80
2018-02-20T06:39:32.410Z,99.33
2018-02-20T06:40:32.378Z,99.14
2018-02-20T06:41:32.373Z,98.95
2018-02-20T06:42:32.373Z,99.04
2018-02-20T06:43:32.377Z,99.80
2018-02-20T06:44:32.361Z,99.33
2018-02-20T06:45:32.365Z,98.95
2018-02-20T06:46:32.372Z,98.76
2018-02-20T06:47:32.355Z,98.85
2018-02-20T06:48:32.361Z,99.04
2018-02-20T06:49:32.341Z,98.38
2018-02-20T06:50:32.351Z,98.33
2018-02-20T06:51:32.330Z,98.05
2018-02-20T06:52:32.352Z,98.05
2018-02-20T06:53:32.335Z,97.58
2018-02-20T06:54:32.325Z,97.86
2018-02-20T06:55:32.329Z,97.39
2018-02-20T06:56:32.378Z,97.86
2018-02-20T06:57:32.313Z,97.49
2018-02-20T06:58:32.309Z,97.67
2018-02-20T06:59:32.312Z,97.67
2018-02-20T07:00:32.308Z,97.49
2018-02-20T07:01:32.301Z,97.39
2018-02-20T07:02:32.303Z,97.67
2018-02-20T07:03:32.306Z,97.58
2018-02-20T07:04:32.305Z,96.92
2018-02-20T07:05:32.288Z,97.01
2018-02-20T07:06:32.295Z,97.30
2018-02-20T07:07:33.149Z,96.26
2018-02-20T07:08:32.273Z,96.16
2018-02-20T07:09:32.275Z,96.26
2018-02-20T07:10:32.259Z,95.69
2018-02-20T07:11:32.261Z,96.26
2018-02-20T07:12:32.259Z,95.40
2018-02-20T07:13:32.265Z,94.84
2018-02-20T07:14:32.245Z,95.21
2018-02-20T07:15:32.270Z,94.65
2018-02-20T07:16:32.244Z,94.46
2018-02-20T07:17:32.312Z,94.42
2018-02-20T07:18:32.244Z,94.60
2018-02-20T07:19:32.239Z,94.13
2018-02-20T07:20:32.231Z,94.32
2018-02-20T07:21:32.219Z,94.13
2018-02-20T07:22:32.228Z,93.66
2018-02-20T07:23:32.343Z,93.85
2018-02-20T07:24:32.249Z,93.28
2018-02-20T07:25:32.257Z,93.09
2018-02-20T07:26:32.244Z,93.09
2018-02-20T07:27:32.213Z,92.71
2018-02-20T07:28:32.211Z,92.99
2018-02-20T07:29:32.211Z,92.99
2018-02-20T07:30:32.220Z,92.52
2018-02-20T07:31:32.217Z,92.61
2018-02-20T07:32:32.204Z,92.24
2018-02-20T07:33:32.190Z,92.33
2018-02-20T07:34:32.242Z,91.29
2018-02-20T07:35:32.207Z,91.29
2018-02-20T07:36:32.183Z,90.63
2018-02-20T07:37:32.180Z,90.77
2018-02-20T07:38:32.188Z,90.86
2018-02-20T07:39:33.176Z,89.30
2018-02-20T07:40:32.183Z,87.35
2018-02-20T07:41:32.160Z,84.89
2018-02-20T07:42:32.157Z,83.28
2018-02-20T07:43:32.179Z,82.90
2018-02-20T07:44:32.156Z,81.62
2018-02-20T07:45:32.165Z,80.57
2018-02-20T07:46:32.144Z,79.19
2018-02-20T07:47:32.155Z,77.01
2018-02-20T07:48:32.154Z,77.20
2018-02-20T07:49:32.141Z,76.15
2018-02-20T07:50:32.149Z,75.62
2018-02-20T07:51:32.157Z,74.87
2018-02-20T07:52:32.131Z,73.57
2018-02-20T07:53:32.131Z,72.53
2018-02-20T07:54:32.657Z,71.52
2018-02-20T07:55:32.143Z,69.53
2018-02-20T07:56:32.140Z,68.33
2018-02-20T07:57:32.161Z,67.09
2018-02-20T07:58:32.124Z,66.71
2018-02-20T07:59:32.150Z,66.71
2018-02-20T08:00:32.173Z,66.61
2018-02-20T08:01:32.125Z,65.38
2018-02-20T08:02:32.123Z,65.13
2018-02-20T08:03:32.118Z,64.08
2018-02-20T08:04:32.112Z,63.64
2018-02-20T08:05:32.174Z,61.58
2018-02-20T08:06:32.118Z,60.37
2018-02-20T08:07:32.185Z,58.56
2018-02-20T08:08:32.114Z,59.10
2018-02-20T08:09:32.117Z,60.41
2018-02-20T08:10:32.152Z,61.16
2018-02-20T08:11:32.116Z,60.88
2018-02-20T08:12:32.130Z,60.24
2018-02-20T08:13:32.124Z,59.67
2018-02-20T08:14:32.128Z,59.01
2018-02-20T08:15:32.123Z,59.10
2018-02-20T08:16:32.132Z,60.24
2018-02-20T08:17:32.123Z,60.15
2018-02-20T08:18:32.136Z,59.93
2018-02-20T08:19:32.117Z,61.13
2018-02-20T08:20:32.258Z,62.08
2018-02-20T08:21:32.130Z,61.74
2018-02-20T08:22:32.131Z,61.80
2018-02-20T08:23:32.141Z,61.45
2018-02-20T08:24:32.139Z,60.53
2018-02-20T08:25:32.194Z,58.72
2018-02-20T08:26:32.141Z,59.32
2018-02-20T08:27:32.140Z,58.08
2018-02-20T08:28:32.166Z,58.44
2018-02-20T08:29:32.148Z,58.50
2018-02-20T08:30:32.161Z,59.36
2018-02-20T08:31:32.186Z,58.53
2018-02-20T08:32:32.167Z,57.54
2018-02-20T08:33:33.166Z,57.77
2018-02-20T08:34:32.178Z,58.62
2018-02-20T08:35:32.159Z,58.18
2018-02-20T08:36:33.167Z,56.49
2018-02-20T08:37:32.180Z,57.26
2018-02-20T08:38:32.167Z,58.62
2018-02-20T08:39:32.176Z,58.40
2018-02-20T08:40:32.199Z,58.91
2018-02-20T08:41:32.194Z,59.93
2018-02-20T08:42:32.722Z,60.02
2018-02-20T08:43:32.182Z,59.36
2018-02-20T08:44:32.191Z,59.48
2018-02-20T08:45:32.190Z,58.65
2018-02-20T08:46:32.197Z,57.80
2018-02-20T08:47:32.197Z,56.49
2018-02-20T08:48:32.218Z,55.83
2018-02-20T08:49:32.207Z,55.63
2018-02-20T08:50:32.200Z,54.71
2018-02-20T08:51:33.177Z,53.64
2018-02-20T08:52:32.220Z,54.14
2018-02-20T08:53:32.219Z,54.39
2018-02-20T08:54:32.266Z,55.49
2018-02-20T08:55:32.252Z,57.80
2018-02-20T08:56:32.241Z,57.51
2018-02-20T08:57:32.224Z,57.87
2018-02-20T08:58:33.178Z,56.94
2018-02-20T08:59:32.244Z,56.65
2018-02-20T09:00:32.264Z,56.46
2018-02-20T09:01:32.342Z,56.63
2018-02-20T09:02:32.278Z,57.74
2018-02-20T09:03:32.256Z,58.62
2018-02-20T09:04:32.259Z,59.07
2018-02-20T09:05:32.271Z,58.34
2018-02-20T09:06:33.440Z,57.96
2018-02-20T09:07:32.334Z,56.94
2018-02-20T09:08:32.347Z,56.09
2018-02-20T09:09:32.335Z,56.82
2018-02-20T09:10:32.493Z,58.44
2018-02-20T09:11:32.288Z,58.28
2018-02-20T09:12:32.372Z,56.94
2018-02-20T09:13:32.418Z,56.11
2018-02-20T09:14:32.334Z,55.38
2018-02-20T09:15:32.390Z,54.39
2018-02-20T09:16:32.321Z,54.39
2018-02-20T09:17:32.408Z,53.73
2018-02-20T09:18:32.316Z,54.85
2018-02-20T09:19:32.312Z,55.35
2018-02-20T09:20:32.311Z,54.30
2018-02-20T09:21:32.421Z,54.30
2018-02-20T09:22:32.317Z,53.76
2018-02-20T09:23:32.837Z,53.00
2018-02-20T09:24:33.268Z,53.64
2018-02-20T09:25:32.923Z,55.65
2018-02-20T09:26:32.370Z,57.65
2018-02-20T09:27:33.189Z,59.71
2018-02-20T09:28:32.339Z,59.67
2018-02-20T09:29:32.349Z,58.02
2018-02-20T09:30:32.376Z,55.90
2018-02-20T09:31:32.347Z,55.07
2018-02-20T09:32:32.354Z,53.85
2018-02-20T09:33:32.359Z,52.23
2018-02-20T09:34:32.374Z,52.16
2018-02-20T09:35:32.381Z,50.73
2018-02-20T09:36:32.368Z,52.07
2018-02-20T09:37:32.375Z,52.61
2018-02-20T09:38:32.379Z,53.83
2018-02-20T09:39:32.395Z,53.54
2018-02-20T09:40:32.388Z,54.18
2018-02-20T09:41:32.410Z,53.85
2018-02-20T09:42:32.403Z,52.73
2018-02-20T09:43:32.414Z,52.23
2018-02-20T09:44:33.213Z,52.14
2018-02-20T09:45:32.478Z,52.14
2018-02-20T09:46:32.419Z,53.70
2018-02-20T09:47:32.411Z,55.51
2018-02-20T09:48:32.417Z,56.11
2018-02-20T09:49:32.460Z,54.90
2018-02-20T09:50:32.435Z,53.69
2018-02-20T09:51:32.452Z,52.36
2018-02-20T09:52:32.467Z,51.59
2018-02-20T09:53:32.456Z,52.49
2018-02-20T09:54:32.467Z,53.76
2018-02-20T09:55:32.465Z,52.61
2018-02-20T09:56:32.471Z,53.73
2018-02-20T09:57:32.472Z,55.51
2018-02-20T09:58:32.602Z,55.47
2018-02-20T09:59:32.481Z,53.56
2018-02-20T10:00:32.498Z,53.85
2018-02-20T10:01:32.502Z,52.71
2018-02-20T10:02:32.508Z,52.45
2018-02-20T10:03:32.525Z,52.16
2018-02-20T10:04:32.507Z,52.42
2018-02-20T10:05:32.518Z,52.61
2018-02-20T10:06:32.514Z,53.02
2018-02-20T10:07:32.531Z,51.95
2018-02-20T10:08:32.691Z,51.56
2018-02-20T10:09:32.543Z,51.73
2018-02-20T10:10:32.536Z,53.92
2018-02-20T10:11:32.564Z,53.92
2018-02-20T10:12:32.553Z,56.05
2018-02-20T10:13:32.572Z,55.99
2018-02-20T10:14:32.571Z,55.80
2018-02-20T10:15:32.568Z,56.72
2018-02-20T10:16:32.616Z,58.03
2018-02-20T10:17:32.582Z,57.93
2018-02-20T10:18:32.613Z,58.81
2018-02-20T10:19:32.600Z,58.06
2018-02-20T10:20:32.603Z,56.78
2018-02-20T10:21:32.615Z,55.77
2018-02-20T10:22:32.815Z,57.23
2018-02-20T10:23:32.629Z,56.49
2018-02-20T10:24:32.637Z,55.26
2018-02-20T10:25:32.642Z,53.85
2018-02-20T10:26:32.634Z,53.19
2018-02-20T10:27:32.647Z,53.47
2018-02-20T10:28:32.644Z,52.04
2018-02-20T10:29:32.787Z,52.83
2018-02-20T10:30:32.661Z,50.92
2018-02-20T10:31:32.668Z,52.14
2018-02-20T10:32:32.659Z,53.44
2018-02-20T10:33:33.222Z,54.21
2018-02-20T10:34:32.691Z,55.42
2018-02-20T10:35:32.684Z,57.13
2018-02-20T10:36:32.728Z,56.85
2018-02-20T10:37:32.727Z,55.99
2018-02-20T10:38:32.931Z,56.09
2018-02-20T10:39:32.767Z,55.70
2018-02-20T10:40:32.789Z,55.96
2018-02-20T10:41:32.741Z,56.82
2018-02-20T10:42:32.745Z,57.87
2018-02-20T10:43:33.224Z,57.42
2018-02-20T10:44:32.717Z,56.46
2018-02-20T10:45:32.736Z,58.22
2018-02-20T10:46:32.758Z,57.60
2018-02-20T10:47:32.750Z,56.63
2018-02-20T10:48:32.766Z,57.48
2018-02-20T10:49:32.755Z,57.67
2018-02-20T10:50:32.758Z,57.96
2018-02-20T10:51:32.764Z,58.57
2018-02-20T10:52:33.727Z,59.42
2018-02-20T10:53:32.780Z,60.06
2018-02-20T10:54:32.778Z,60.57
2018-02-20T10:55:32.791Z,60.63
2018-02-20T10:56:32.800Z,62.02
2018-02-20T10:57:32.819Z,63.07
2018-02-20T10:58:32.814Z,64.49
2018-02-20T10:59:32.835Z,64.30
2018-02-20T11:00:32.906Z,64.30
2018-02-20T11:01:32.815Z,63.86
2018-02-20T11:02:32.818Z,62.81
2018-02-20T11:03:32.823Z,62.97
2018-02-20T11:04:32.817Z,63.67
2018-02-20T11:05:32.851Z,63.76
2018-02-20T11:06:32.931Z,62.94
2018-02-20T11:07:32.869Z,62.18
2018-02-20T11:08:32.852Z,61.13
2018-02-20T11:09:32.862Z,61.10
2018-02-20T11:10:33.751Z,61.58
2018-02-20T11:11:32.857Z,62.53
2018-02-20T11:12:32.847Z,63.01
2018-02-20T11:13:32.867Z,63.01
2018-02-20T11:14:32.861Z,61.90
2018-02-20T11:15:32.883Z,61.16
2018-02-20T11:16:32.861Z,58.85
2018-02-20T11:17:32.950Z,60.09
2018-02-20T11:18:32.895Z,58.69
2018-02-20T11:19:32.869Z,57.77
2018-02-20T11:20:32.888Z,57.42
2018-02-20T11:21:32.998Z,55.22
2018-02-20T11:22:32.886Z,54.08
2018-02-20T11:23:33.011Z,54.53
2018-02-20T11:24:32.915Z,56.34
2018-02-20T11:25:33.742Z,56.92
2018-02-20T11:26:33.031Z,57.01
2018-02-20T11:27:32.962Z,56.63
2018-02-20T11:28:32.912Z,56.34
2018-02-20T11:29:32.931Z,57.55
2018-02-20T11:30:33.744Z,57.77
2018-02-20T11:31:32.928Z,57.20
2018-02-20T11:32:32.954Z,57.01
2018-02-20T11:33:32.937Z,57.20
2018-02-20T11:34:32.924Z,57.67
2018-02-20T11:35:32.929Z,57.45
2018-02-20T11:36:33.062Z,57.65
2018-02-20T11:37:32.961Z,58.92
2018-02-20T11:38:32.972Z,60.66
2018-02-20T11:39:32.969Z,60.18
2018-02-20T11:40:32.956Z,60.47
2018-02-20T11:41:32.965Z,60.35
2018-02-20T11:42:32.958Z,62.88
2018-02-20T11:43:32.959Z,62.81
2018-02-20T11:44:32.976Z,62.37
2018-02-20T11:45:32.964Z,61.90
2018-02-20T11:46:33.095Z,60.85
2018-02-20T11:47:32.972Z,60.94
2018-02-20T11:48:32.989Z,60.50
2018-02-20T11:49:32.980Z,60.09
2018-02-20T11:50:32.994Z,60.60
2018-02-20T11:51:33.052Z,61.52
2018-02-20T11:52:32.999Z,61.04
2018-02-20T11:53:33.001Z,61.04
2018-02-20T11:54:33.044Z,60.69
2018-02-20T11:55:33.003Z,59.80
2018-02-20T11:56:32.996Z,59.93
2018-02-20T11:57:33.014Z,60.12
2018-02-20T11:58:33.022Z,59.07
2018-02-20T11:59:33.007Z,59.33
2018-02-20T12:00:33.020Z,61.93
2018-02-20T12:01:33.018Z,60.02
2018-02-20T12:02:33.034Z,59.64
2018-02-20T12:03:33.046Z,59.36
2018-02-20T12:04:33.172Z,58.40
2018-02-20T12:05:33.035Z,59.17
2018-02-20T12:06:33.044Z,58.22
2018-02-20T12:07:33.050Z,58.50
2018-02-20T12:08:33.066Z,58.59
2018-02-20T12:09:33.047Z,57.26
2018-02-20T12:10:33.052Z,57.07
2018-02-20T12:11:33.059Z,57.74
2018-02-20T12:12:33.060Z,57.36
2018-02-20T12:13:33.064Z,58.57
2018-02-20T12:14:33.073Z,58.03
2018-02-20T12:15:33.073Z,57.90
2018-02-20T12:16:33.081Z,56.76
2018-02-20T12:17:33.227Z,56.83
2018-02-20T12:18:33.077Z,57.68
2018-02-20T12:19:33.094Z,58.57
2018-02-20T12:20:33.163Z,58.18
2018-02-20T12:21:33.084Z,57.62
2018-02-20T12:22:33.087Z,57.62
2018-02-20T12:23:33.092Z,57.71
2018-02-20T12:24:33.085Z,57.14
2018-02-20T12:25:33.086Z,57.59
2018-02-20T12:26:33.088Z,58.16
2018-02-20T12:27:33.085Z,58.25
2018-02-20T12:28:33.097Z,58.16
2018-02-20T12:29:33.106Z,58.54
2018-02-20T12:32:10.793Z,57.97
